createdAt,value
2023-05-03T00:01:40.511Z,1016.19
2023-05-03T00:04:13.573Z,1016.21
2023-05-03T00:06:46.553Z,1016.23
2023-05-03T00:09:19.586Z,1016.22
2023-05-03T00:11:52.565Z,1016.22
2023-05-03T00:14:25.365Z,1016.22
2023-05-03T00:16:58.473Z,1016.21
2023-05-03T00:19:32.052Z,1016.21
2023-05-03T00:22:04.157Z,1016.19
2023-05-03T00:24:37.509Z,1016.19
2023-05-03T00:27:10.384Z,1016.17
2023-05-03T00:29:43.549Z,1016.17
2023-05-03T00:32:16.268Z,1016.16
2023-05-03T00:34:49.557Z,1016.14
2023-05-03T00:37:22.581Z,1016.12
2023-05-03T00:39:55.726Z,1016.10
2023-05-03T00:42:29.574Z,1016.10
2023-05-03T00:45:02.373Z,1016.08
2023-05-03T00:47:35.569Z,1016.05
2023-05-03T00:50:08.533Z,1016.04
2023-05-03T00:52:41.479Z,1016.01
2023-05-03T00:55:14.789Z,1015.98
2023-05-03T00:57:48.637Z,1015.95
2023-05-03T01:00:21.532Z,1015.91
2023-05-03T01:02:54.741Z,1015.89
2023-05-03T01:05:27.633Z,1015.85
2023-05-03T01:08:00.498Z,1015.81
2023-05-03T01:10:33.568Z,1015.79
2023-05-03T01:13:06.516Z,1015.77
2023-05-03T01:15:39.578Z,1015.75
2023-05-03T01:18:12.661Z,1015.75
2023-05-03T01:20:45.420Z,1015.72
2023-05-03T01:23:18.658Z,1015.71
2023-05-03T01:25:51.418Z,1015.71
2023-05-03T01:28:24.699Z,1015.70
2023-05-03T01:30:57.508Z,1015.71
2023-05-03T01:33:30.635Z,1015.69
2023-05-03T01:36:03.525Z,1015.67
2023-05-03T01:38:36.603Z,1015.66
2023-05-03T01:41:09.610Z,1015.66
2023-05-03T01:43:42.373Z,1015.65
2023-05-03T01:46:15.821Z,1015.63
2023-05-03T01:48:49.402Z,1015.60
2023-05-03T01:51:22.677Z,1015.58
2023-05-03T01:53:55.849Z,1015.57
2023-05-03T01:56:29.708Z,1015.56
2023-05-03T01:59:02.744Z,1015.56
2023-05-03T02:01:36.655Z,1015.57
2023-05-03T02:04:09.616Z,1015.57
2023-05-03T02:06:42.721Z,1015.58
2023-05-03T02:09:15.696Z,1015.59
2023-05-03T02:11:49.688Z,1015.60
2023-05-03T02:14:22.724Z,1015.62
2023-05-03T02:16:55.754Z,1015.64
2023-05-03T02:19:28.409Z,1015.68
2023-05-03T02:22:01.688Z,1015.70
2023-05-03T02:24:34.622Z,1015.73
2023-05-03T02:27:07.618Z,1015.74
2023-05-03T02:29:40.870Z,1015.76
2023-05-03T02:32:14.758Z,1015.77
2023-05-03T02:34:47.487Z,1015.77
2023-05-03T02:37:20.732Z,1015.77
2023-05-03T02:39:53.484Z,1015.79
2023-05-03T02:42:26.746Z,1015.80
2023-05-03T02:44:59.504Z,1015.80
2023-05-03T02:47:32.610Z,1015.80
2023-05-03T02:50:05.992Z,1015.80
2023-05-03T02:52:38.661Z,1015.82
2023-05-03T02:55:11.654Z,1015.84
2023-05-03T02:57:44.807Z,1015.84
2023-05-03T03:00:17.777Z,1015.86
2023-05-03T03:02:53.878Z,1015.89
2023-05-03T03:05:26.869Z,1015.91
2023-05-03T03:08:00.743Z,1015.91
2023-05-03T03:10:33.494Z,1015.90
2023-05-03T03:13:06.437Z,1015.90
2023-05-03T03:18:13.751Z,1015.89
2023-05-03T03:20:46.762Z,1015.89
2023-05-03T03:23:19.565Z,1015.88
2023-05-03T03:25:52.644Z,1015.88
2023-05-03T03:28:25.718Z,1015.88
2023-05-03T03:30:58.773Z,1015.89
2023-05-03T03:33:31.608Z,1015.87
2023-05-03T03:36:04.797Z,1015.86
2023-05-03T03:38:51.796Z,1015.85
2023-05-03T03:41:24.862Z,1015.83
2023-05-03T03:43:57.678Z,1015.83
2023-05-03T03:46:30.795Z,1015.81
2023-05-03T03:49:03.649Z,1015.81
2023-05-03T03:51:36.625Z,1015.78
2023-05-03T03:54:09.899Z,1015.78
2023-05-03T03:56:42.648Z,1015.78
2023-05-03T03:59:17.381Z,1015.77
2023-05-03T04:01:50.658Z,1015.77
2023-05-03T04:04:23.752Z,1015.78
2023-05-03T04:06:56.869Z,1015.78
2023-05-03T04:09:29.862Z,1015.79
2023-05-03T04:12:02.507Z,1015.80
2023-05-03T04:14:35.740Z,1015.80
2023-05-03T04:17:08.691Z,1015.81
2023-05-03T04:19:41.616Z,1015.82
2023-05-03T04:22:14.619Z,1015.83
2023-05-03T04:24:47.747Z,1015.87
2023-05-03T04:27:20.676Z,1015.87
2023-05-03T04:29:53.683Z,1015.87
2023-05-03T04:32:26.712Z,1015.89
2023-05-03T04:34:59.635Z,1015.89
2023-05-03T04:37:32.710Z,1015.91
2023-05-03T04:40:05.809Z,1015.93
2023-05-03T04:42:38.862Z,1015.94
2023-05-03T04:45:11.704Z,1015.94
2023-05-03T04:47:45.210Z,1015.94
2023-05-03T04:50:18.864Z,1015.95
2023-05-03T04:52:51.534Z,1015.96
2023-05-03T04:55:24.751Z,1015.97
2023-05-03T04:57:57.625Z,1015.98
2023-05-03T05:00:30.889Z,1016.00
2023-05-03T05:03:03.952Z,1016.01
2023-05-03T05:05:50.888Z,1016.04
2023-05-03T05:08:23.869Z,1016.03
2023-05-03T05:10:56.726Z,1016.03
2023-05-03T05:13:29.545Z,1016.05
2023-05-03T05:16:02.898Z,1016.05
2023-05-03T05:18:36.141Z,1016.05
2023-05-03T05:21:08.833Z,1016.05
2023-05-03T05:23:42.031Z,1016.06
2023-05-03T05:26:14.855Z,1016.06
2023-05-03T05:28:47.774Z,1016.08
2023-05-03T05:31:21.192Z,1016.08
2023-05-03T05:33:54.623Z,1016.09
2023-05-03T05:36:27.938Z,1016.11
2023-05-03T05:39:00.604Z,1016.12
2023-05-03T05:41:33.849Z,1016.13
2023-05-03T05:44:06.890Z,1016.12
2023-05-03T05:46:40.223Z,1016.13
2023-05-03T05:49:14.010Z,1016.13
2023-05-03T05:51:46.946Z,1016.11
2023-05-03T05:54:19.979Z,1016.13
2023-05-03T05:56:52.679Z,1016.14
2023-05-03T05:59:25.935Z,1016.12
2023-05-03T06:01:59.030Z,1016.09
2023-05-03T06:04:31.766Z,1016.09
2023-05-03T06:07:04.669Z,1016.08
2023-05-03T06:09:37.659Z,1016.08
2023-05-03T06:12:10.760Z,1016.08
2023-05-03T06:14:55.444Z,1016.07
2023-05-03T06:17:16.924Z,1016.07
2023-05-03T06:19:49.673Z,1016.05
2023-05-03T06:22:23.005Z,1016.02
2023-05-03T06:24:55.667Z,1016.00
2023-05-03T06:27:28.816Z,1015.99
2023-05-03T06:30:02.325Z,1015.99
2023-05-03T06:32:34.869Z,1015.97
2023-05-03T06:35:07.750Z,1015.94
2023-05-03T06:37:40.756Z,1015.93
2023-05-03T06:40:13.957Z,1015.92
2023-05-03T06:42:46.994Z,1015.90
2023-05-03T06:45:19.844Z,1015.90
2023-05-03T06:47:53.077Z,1015.92
2023-05-03T06:50:25.725Z,1015.94
2023-05-03T06:52:58.752Z,1015.96
2023-05-03T06:55:31.689Z,1015.98
2023-05-03T06:58:04.897Z,1015.98
2023-05-03T07:00:38.239Z,1016.00
2023-05-03T07:03:12.206Z,1016.01
2023-05-03T07:05:45.006Z,1016.03
2023-05-03T07:08:18.075Z,1016.04
2023-05-03T07:10:50.916Z,1016.03
2023-05-03T07:13:23.728Z,1016.03
2023-05-03T07:15:57.187Z,1016.03
2023-05-03T07:18:30.140Z,1016.01
2023-05-03T07:21:02.925Z,1016.00
2023-05-03T07:23:35.976Z,1015.98
2023-05-03T07:26:09.289Z,1015.97
2023-05-03T07:28:43.002Z,1015.96
2023-05-03T07:31:16.133Z,1015.96
2023-05-03T07:33:48.988Z,1015.94
2023-05-03T07:36:22.154Z,1015.93
2023-05-03T07:39:08.726Z,1015.91
2023-05-03T07:41:41.751Z,1015.90
2023-05-03T07:44:14.914Z,1015.90
2023-05-03T07:46:48.185Z,1015.89
2023-05-03T07:49:21.081Z,1015.88
2023-05-03T07:51:53.840Z,1015.87
2023-05-03T07:54:26.878Z,1015.86
2023-05-03T07:57:00.102Z,1015.86
2023-05-03T07:59:33.190Z,1015.85
2023-05-03T08:02:06.251Z,1015.85
2023-05-03T08:04:42.269Z,1015.85
2023-05-03T08:07:14.834Z,1015.84
2023-05-03T08:09:47.795Z,1015.83
2023-05-03T08:12:20.982Z,1015.82
2023-05-03T08:14:54.045Z,1015.82
2023-05-03T08:17:26.957Z,1015.81
2023-05-03T08:20:00.313Z,1015.80
2023-05-03T08:22:32.838Z,1015.80
2023-05-03T08:25:05.954Z,1015.77
2023-05-03T08:27:39.027Z,1015.76
2023-05-03T08:30:12.175Z,1015.75
2023-05-03T08:32:47.474Z,1015.74
2023-05-03T08:35:21.537Z,1015.75
2023-05-03T08:37:55.163Z,1015.76
2023-05-03T08:40:28.003Z,1015.76
2023-05-03T08:43:01.136Z,1015.76
2023-05-03T08:45:34.034Z,1015.74
2023-05-03T08:48:07.096Z,1015.74
2023-05-03T08:50:40.315Z,1015.73
2023-05-03T08:53:13.292Z,1015.74
2023-05-03T08:55:46.098Z,1015.75
2023-05-03T08:58:19.019Z,1015.76
2023-05-03T09:00:51.881Z,1015.75
2023-05-03T09:03:25.164Z,1015.75
2023-05-03T09:05:57.942Z,1015.74
2023-05-03T09:08:30.914Z,1015.75
2023-05-03T09:11:04.320Z,1015.74
2023-05-03T09:13:37.065Z,1015.75
2023-05-03T09:16:10.216Z,1015.74
2023-05-03T09:18:43.044Z,1015.74
2023-05-03T09:21:16.366Z,1015.74
2023-05-03T09:23:48.927Z,1015.74
2023-05-03T09:26:25.152Z,1015.75
2023-05-03T09:29:12.060Z,1015.76
2023-05-03T09:31:45.120Z,1015.75
2023-05-03T09:34:17.951Z,1015.72
2023-05-03T09:36:51.162Z,1015.71
2023-05-03T09:39:23.971Z,1015.67
2023-05-03T09:41:56.957Z,1015.64
2023-05-03T09:44:29.974Z,1015.61
2023-05-03T09:47:04.282Z,1015.59
2023-05-03T09:49:37.395Z,1015.57
2023-05-03T09:52:10.344Z,1015.55
2023-05-03T09:54:43.193Z,1015.54
2023-05-03T09:57:16.381Z,1015.54
2023-05-03T09:59:49.353Z,1015.53
2023-05-03T10:02:22.273Z,1015.49
2023-05-03T10:04:54.990Z,1015.46
2023-05-03T10:07:28.017Z,1015.44
2023-05-03T10:10:01.135Z,1015.41
2023-05-03T10:12:34.019Z,1015.40
2023-05-03T10:15:07.443Z,1015.38
2023-05-03T10:17:46.936Z,1015.34
2023-05-03T10:20:14.600Z,1015.31
2023-05-03T10:22:48.238Z,1015.29
2023-05-03T10:25:21.327Z,1015.27
2023-05-03T10:27:54.291Z,1015.24
2023-05-03T10:30:27.028Z,1015.21
2023-05-03T10:33:00.415Z,1015.18
2023-05-03T10:35:33.428Z,1015.14
2023-05-03T10:38:06.496Z,1015.13
2023-05-03T10:40:39.336Z,1015.12
2023-05-03T10:43:12.332Z,1015.11
2023-05-03T10:45:46.661Z,1015.12
2023-05-03T10:48:18.551Z,1015.11
2023-05-03T10:50:52.649Z,1015.11
2023-05-03T10:53:26.397Z,1015.10
2023-05-03T10:55:59.035Z,1015.09
2023-05-03T10:58:32.400Z,1015.08
2023-05-03T11:01:05.272Z,1015.08
2023-05-03T11:03:38.363Z,1015.06
2023-05-03T11:06:11.398Z,1015.05
2023-05-03T11:08:44.410Z,1015.03
2023-05-03T11:11:31.284Z,1015.00
2023-05-03T11:14:04.539Z,1014.97
2023-05-03T11:16:37.456Z,1014.96
2023-05-03T11:19:13.250Z,1014.93
2023-05-03T11:21:47.101Z,1014.91
2023-05-03T11:24:19.530Z,1014.87
2023-05-03T11:26:52.434Z,1014.84
2023-05-03T11:29:25.115Z,1014.81
2023-05-03T11:31:58.130Z,1014.77
2023-05-03T11:34:31.128Z,1014.73
2023-05-03T11:37:04.510Z,1014.70
2023-05-03T11:39:37.455Z,1014.68
2023-05-03T11:42:10.136Z,1014.65
2023-05-03T11:44:43.270Z,1014.64
2023-05-03T11:47:16.272Z,1014.59
2023-05-03T11:49:49.417Z,1014.59
2023-05-03T11:52:22.231Z,1014.55
2023-05-03T11:54:55.170Z,1014.52
2023-05-03T11:57:28.130Z,1014.50
2023-05-03T12:00:01.279Z,1014.48
2023-05-03T12:02:34.517Z,1014.47
2023-05-03T12:05:08.100Z,1014.45
2023-05-03T12:07:40.616Z,1014.43
2023-05-03T12:10:19.545Z,1014.42
2023-05-03T12:12:48.901Z,1014.39
2023-05-03T12:15:22.939Z,1014.37
2023-05-03T12:17:55.709Z,1014.35
2023-05-03T12:21:16.697Z,1014.32
2023-05-03T12:23:04.023Z,1014.26
2023-05-03T12:25:35.645Z,1014.23
2023-05-03T12:28:19.779Z,1014.21
2023-05-03T12:30:41.646Z,1014.17
2023-05-03T12:33:15.521Z,1014.14
2023-05-03T12:35:48.290Z,1014.12
2023-05-03T12:38:23.635Z,1014.10
2023-05-03T12:40:56.237Z,1014.08
2023-05-03T12:43:29.290Z,1014.06
2023-05-03T12:46:25.741Z,1014.05
2023-05-03T12:48:35.615Z,1014.02
2023-05-03T12:51:19.368Z,1013.98
2023-05-03T12:53:46.681Z,1013.95
2023-05-03T12:56:15.485Z,1013.94
2023-05-03T12:59:05.104Z,1013.93
2023-05-03T13:02:17.088Z,1013.91
2023-05-03T13:06:28.513Z,1013.86
2023-05-03T13:09:03.390Z,1013.84
2023-05-03T13:11:35.551Z,1013.81
2023-05-03T13:14:08.260Z,1013.77
2023-05-03T13:16:41.372Z,1013.73
2023-05-03T13:19:14.331Z,1013.70
2023-05-03T13:21:47.347Z,1013.68
2023-05-03T13:24:20.387Z,1013.64
2023-05-03T13:26:53.478Z,1013.60
2023-05-03T13:29:26.274Z,1013.54
2023-05-03T13:31:59.579Z,1013.51
2023-05-03T13:34:32.300Z,1013.46
2023-05-03T13:37:05.400Z,1013.42
2023-05-03T13:39:38.310Z,1013.37
2023-05-03T13:42:11.340Z,1013.32
2023-05-03T13:44:44.572Z,1013.27
2023-05-03T13:47:17.610Z,1013.25
2023-05-03T13:49:50.337Z,1013.21
2023-05-03T13:52:23.460Z,1013.16
2023-05-03T13:54:56.594Z,1013.11
2023-05-03T13:57:29.705Z,1013.07
2023-05-03T14:00:02.786Z,1013.06
2023-05-03T14:02:35.346Z,1013.03
2023-05-03T14:05:08.877Z,1013.00
2023-05-03T14:07:42.812Z,1012.98
2023-05-03T14:10:16.797Z,1012.94
2023-05-03T14:13:03.844Z,1012.92
2023-05-03T14:15:36.516Z,1012.92
2023-05-03T14:18:11.814Z,1012.88
2023-05-03T14:20:44.646Z,1012.87
2023-05-03T14:23:17.777Z,1012.84
2023-05-03T14:25:50.700Z,1012.82
2023-05-03T14:28:23.665Z,1012.78
2023-05-03T14:30:56.672Z,1012.76
2023-05-03T14:36:19.517Z,1012.73
2023-05-03T14:38:52.454Z,1012.70
2023-05-03T14:41:25.413Z,1012.67
2023-05-03T14:43:58.767Z,1012.66
2023-05-03T14:46:31.440Z,1012.64
2023-05-03T14:49:04.786Z,1012.62
2023-05-03T14:51:37.907Z,1012.58
2023-05-03T14:54:11.414Z,1012.55
2023-05-03T14:56:44.511Z,1012.53
2023-05-03T14:59:17.589Z,1012.50
2023-05-03T15:01:50.667Z,1012.49
2023-05-03T15:04:23.720Z,1012.47
2023-05-03T15:06:56.705Z,1012.46
2023-05-03T15:09:29.583Z,1012.43
2023-05-03T15:12:02.673Z,1012.43
2023-05-03T15:14:35.969Z,1012.41
2023-05-03T15:17:09.779Z,1012.40
2023-05-03T15:19:42.930Z,1012.38
2023-05-03T15:22:16.781Z,1012.35
2023-05-03T15:24:52.729Z,1012.35
2023-05-03T15:27:25.682Z,1012.33
2023-05-03T15:29:58.755Z,1012.31
2023-05-03T15:32:31.748Z,1012.31
2023-05-03T15:35:04.733Z,1012.29
2023-05-03T15:37:37.486Z,1012.27
2023-05-03T15:40:11.389Z,1012.27
2023-05-03T15:42:44.774Z,1012.26
2023-05-03T15:45:17.827Z,1012.23
2023-05-03T15:47:50.985Z,1012.21
2023-05-03T15:50:23.717Z,1012.18
2023-05-03T15:52:56.733Z,1012.16
2023-05-03T15:55:29.699Z,1012.13
2023-05-03T15:58:02.469Z,1012.12
2023-05-03T16:00:35.991Z,1012.11
2023-05-03T16:03:08.811Z,1012.09
2023-05-03T16:05:41.864Z,1012.06
2023-05-03T16:08:14.979Z,1012.03
2023-05-03T16:10:48.895Z,1012.01
2023-05-03T16:13:21.853Z,1011.98
2023-05-03T16:15:55.005Z,1011.95
2023-05-03T16:18:27.837Z,1011.92
2023-05-03T16:21:00.959Z,1011.91
2023-05-03T16:23:33.798Z,1011.88
2023-05-03T16:26:06.724Z,1011.87
2023-05-03T16:28:39.962Z,1011.85
2023-05-03T16:31:12.778Z,1011.83
2023-05-03T16:33:45.944Z,1011.81
2023-05-03T16:36:22.689Z,1011.79
2023-05-03T16:38:55.570Z,1011.77
2023-05-03T16:41:28.569Z,1011.76
2023-05-03T16:44:01.838Z,1011.74
2023-05-03T16:46:35.004Z,1011.73
2023-05-03T16:49:07.609Z,1011.73
2023-05-03T16:51:54.474Z,1011.72
2023-05-03T16:54:27.841Z,1011.72
2023-05-03T16:57:00.860Z,1011.71
2023-05-03T16:59:33.912Z,1011.71
2023-05-03T17:02:06.822Z,1011.71
2023-05-03T17:04:39.935Z,1011.71
2023-05-03T17:07:12.816Z,1011.72
2023-05-03T17:09:45.856Z,1011.71
2023-05-03T17:12:19.010Z,1011.71
2023-05-03T17:14:51.864Z,1011.71
2023-05-03T17:17:25.007Z,1011.70
2023-05-03T17:19:57.954Z,1011.71
2023-05-03T17:22:30.848Z,1011.71
2023-05-03T17:25:04.026Z,1011.72
2023-05-03T17:27:36.759Z,1011.72
2023-05-03T17:30:15.788Z,1011.73
2023-05-03T17:32:48.935Z,1011.73
2023-05-03T17:35:21.935Z,1011.75
2023-05-03T17:37:54.651Z,1011.75
2023-05-03T17:40:27.958Z,1011.77
2023-05-03T17:43:00.927Z,1011.79
2023-05-03T17:45:34.669Z,1011.80
2023-05-03T17:48:08.149Z,1011.81
2023-05-03T17:50:46.982Z,1011.82
2023-05-03T17:53:19.919Z,1011.87
2023-05-03T17:55:53.669Z,1011.90
2023-05-03T17:58:26.970Z,1011.90
2023-05-03T18:00:59.991Z,1011.91
2023-05-03T18:03:33.192Z,1011.92
2023-05-03T18:06:09.023Z,1011.92
2023-05-03T18:08:41.793Z,1011.92
2023-05-03T18:11:14.724Z,1011.92
2023-05-03T18:13:47.825Z,1011.91
2023-05-03T18:16:21.214Z,1011.92
2023-05-03T18:18:55.001Z,1011.93
2023-05-03T18:21:27.985Z,1011.94
2023-05-03T18:24:00.704Z,1011.96
2023-05-03T18:26:36.968Z,1011.97
2023-05-03T18:29:10.108Z,1011.98
2023-05-03T18:31:42.856Z,1011.99
2023-05-03T18:34:15.822Z,1012.00
2023-05-03T18:36:48.833Z,1012.00
2023-05-03T18:39:21.715Z,1012.00
2023-05-03T18:41:54.822Z,1012.01
2023-05-03T18:44:27.968Z,1012.04
2023-05-03T18:47:00.853Z,1012.06
2023-05-03T18:49:33.925Z,1012.10
2023-05-03T18:52:07.942Z,1012.12
2023-05-03T18:54:40.763Z,1012.14
2023-05-03T18:57:13.804Z,1012.16
2023-05-03T18:59:59.514Z,1012.18
2023-05-03T19:02:20.136Z,1012.19
2023-05-03T19:04:53.292Z,1012.22
2023-05-03T19:07:26.799Z,1012.22
2023-05-03T19:10:00.178Z,1012.23
2023-05-03T19:12:34.358Z,1012.23
2023-05-03T19:15:08.092Z,1012.24
2023-05-03T19:17:41.263Z,1012.24
2023-05-03T19:20:14.048Z,1012.27
2023-05-03T19:22:47.094Z,1012.28
2023-05-03T19:25:20.321Z,1012.30
2023-05-03T19:27:53.966Z,1012.30
2023-05-03T19:30:26.807Z,1012.32
2023-05-03T19:33:00.385Z,1012.34
2023-05-03T19:35:33.928Z,1012.35
2023-05-03T19:38:06.913Z,1012.37
2023-05-03T19:40:40.041Z,1012.37
2023-05-03T19:43:16.390Z,1012.37
2023-05-03T19:45:50.030Z,1012.38
2023-05-03T19:48:36.985Z,1012.37
2023-05-03T19:51:09.954Z,1012.37
2023-05-03T19:53:42.841Z,1012.37
2023-05-03T19:56:16.190Z,1012.37
2023-05-03T19:58:49.000Z,1012.36
2023-05-03T20:01:22.082Z,1012.36
2023-05-03T20:03:55.331Z,1012.36
2023-05-03T20:06:28.088Z,1012.35
2023-05-03T20:09:00.865Z,1012.34
2023-05-03T20:11:34.078Z,1012.34
2023-05-03T20:14:06.862Z,1012.35
2023-05-03T20:16:40.359Z,1012.35
2023-05-03T20:19:13.277Z,1012.35
2023-05-03T20:21:46.267Z,1012.34
2023-05-03T20:24:20.436Z,1012.33
2023-05-03T20:26:54.050Z,1012.34
2023-05-03T20:29:26.895Z,1012.32
2023-05-03T20:32:00.247Z,1012.30
2023-05-03T20:34:32.914Z,1012.28
2023-05-03T20:37:06.208Z,1012.25
2023-05-03T20:39:39.291Z,1012.24
2023-05-03T20:42:12.458Z,1012.23
2023-05-03T20:44:46.265Z,1012.19
2023-05-03T20:47:19.241Z,1012.16
2023-05-03T20:49:52.287Z,1012.14
2023-05-03T20:52:25.376Z,1012.13
2023-05-03T20:54:59.315Z,1012.12
2023-05-03T20:57:32.343Z,1012.11
2023-05-03T21:00:05.518Z,1012.11
2023-05-03T21:02:38.441Z,1012.10
2023-05-03T21:05:11.434Z,1012.11
2023-05-03T21:07:44.587Z,1012.11
2023-05-03T21:10:18.348Z,1012.11
2023-05-03T21:12:51.288Z,1012.11
2023-05-03T21:15:24.342Z,1012.11
2023-05-03T21:17:57.250Z,1012.12
2023-05-03T21:20:30.588Z,1012.15
2023-05-03T21:23:04.261Z,1012.16
2023-05-03T21:25:37.404Z,1012.16
2023-05-03T21:28:10.255Z,1012.16
2023-05-03T21:30:43.334Z,1012.15
2023-05-03T21:33:16.589Z,1012.14
2023-05-03T21:35:50.371Z,1012.12
2023-05-03T21:38:23.409Z,1012.11
2023-05-03T21:40:56.338Z,1012.09
2023-05-03T21:43:29.336Z,1012.09
2023-05-03T21:46:02.433Z,1012.07
2023-05-03T21:48:36.397Z,1012.04
2023-05-03T21:51:09.285Z,1012.03
2023-05-03T21:53:42.359Z,1012.00
2023-05-03T21:56:15.136Z,1011.98
2023-05-03T21:58:48.166Z,1011.95
2023-05-03T22:01:21.378Z,1011.92
2023-05-03T22:03:54.528Z,1011.89
2023-05-03T22:06:27.243Z,1011.87
2023-05-03T22:09:00.360Z,1011.85
2023-05-03T22:11:33.544Z,1011.82
2023-05-03T22:14:08.594Z,1011.79
2023-05-03T22:16:40.244Z,1011.76
2023-05-03T22:19:13.488Z,1011.76
2023-05-03T22:21:46.419Z,1011.75
2023-05-03T22:24:19.446Z,1011.74
2023-05-03T22:26:52.370Z,1011.75
2023-05-03T22:29:25.488Z,1011.76
2023-05-03T22:31:59.352Z,1011.77
2023-05-03T22:34:32.315Z,1011.78
2023-05-03T22:37:05.407Z,1011.79
2023-05-03T22:39:38.470Z,1011.77
2023-05-03T22:42:12.627Z,1011.76
2023-05-03T22:44:46.411Z,1011.76
2023-05-03T22:47:19.251Z,1011.73
2023-05-03T22:49:52.259Z,1011.73
2023-05-03T22:52:25.446Z,1011.73
2023-05-03T22:54:59.457Z,1011.71
2023-05-03T22:57:32.275Z,1011.68
2023-05-03T23:00:05.929Z,1011.65
2023-05-03T23:02:38.586Z,1011.64
2023-05-03T23:05:11.100Z,1011.62
2023-05-03T23:07:44.446Z,1011.60
2023-05-03T23:10:17.574Z,1011.59
2023-05-03T23:12:50.392Z,1011.58
2023-05-03T23:15:23.458Z,1011.58
2023-05-03T23:17:56.464Z,1011.57
2023-05-03T23:20:29.545Z,1011.57
2023-05-03T23:23:02.618Z,1011.58
2023-05-03T23:25:36.571Z,1011.58
2023-05-03T23:28:09.651Z,1011.59
2023-05-03T23:30:43.698Z,1011.58
2023-05-03T23:33:17.589Z,1011.59
2023-05-03T23:35:50.470Z,1011.61
2023-05-03T23:38:23.561Z,1011.61
2023-05-03T23:40:56.701Z,1011.63
2023-05-03T23:43:29.448Z,1011.64
2023-05-03T23:46:02.498Z,1011.64
2023-05-03T23:48:35.627Z,1011.66
2023-05-03T23:51:09.422Z,1011.66
2023-05-03T23:53:42.689Z,1011.65
2023-05-03T23:56:16.630Z,1011.65
2023-05-03T23:58:49.272Z,1011.62
